Terminal Aerodrome Forecast
Issued by NWS

Home | Current Version | Previous Version | Text Only | Print | Product List | Glossary On
Versions: 1 2 3 4 5 6 7 8 9 10 11 12
000
FTUS42 KTBW 032329
TAFLAL
TAF
KLAL 032329Z 0400/0424 09008KT P6SM FEW070
     FM040600 08004KT P6SM FEW250
     FM041400 08012KT P6SM FEW035 SCT250
     FM041700 08014G20KT P6SM SCT050 SCT250
      AMD NOT SKED 0403/0412=

USA.gov is the U.S. government's official web portal to all federal, state and local government web resources and services.